Time;durP1;ratioP1;P1;durP2;ratioP2;P2;SDS_P1;SDS_P2;PMS_P1;PMS_P2;Temp;Humidity;BMP_temperature;BMP_pressure;BME280_temperature;BME280_humidity;BME280_pressure;Samples;Min_cycle;Max_cycle;Signal;HPM_P1;HPM_P2
2021/08/06 00:10:18;;;;;;;8.43;5.73;;;;;;;17.15;76.15;99591.80;21471735;79;99265;-81
2021/08/06 00:40:22;;;;;;;9.18;5.45;;;;;;;17.04;76.42;99573.85;21499946;80;99486;-82
2021/08/06 01:10:27;;;;;;;10.83;5.23;;;;;;;16.86;77.09;99556.31;21250848;81;99731;-83
2021/08/06 01:40:40;;;;;;;11.67;4.13;;;;;;;16.78;77.89;99543.81;21958642;79;99724;-82
2021/08/06 02:10:41;;;;;;;7.03;4.07;;;;;;;16.76;78.39;99528.80;21951095;77;99450;-83
2021/08/06 02:40:43;;;;;;;7.08;3.95;;;;;;;16.72;78.30;99523.34;22026929;78;99041;-82
2021/08/06 03:10:44;;;;;;;11.57;3.80;;;;;;;16.59;78.81;99507.86;21990319;78;99577;-83
2021/08/06 03:40:46;;;;;;;6.62;3.27;;;;;;;16.48;80.00;99499.03;21840975;79;99185;-83
2021/08/06 04:10:47;;;;;;;7.23;3.60;;;;;;;16.34;80.82;99509.89;21808253;78;99467;-82
2021/08/06 04:40:48;;;;;;;7.42;3.60;;;;;;;16.31;82.10;99496.90;22084076;78;99239;-84
2021/08/06 05:10:48;;;;;;;9.13;3.90;;;;;;;16.45;82.65;99497.16;22108835;78;99285;-83
2021/08/06 05:40:49;;;;;;;9.28;4.55;;;;;;;16.75;83.49;99467.51;22090341;78;99314;-83
2021/08/06 06:10:50;;;;;;;7.12;3.75;;;;;;;17.41;83.29;99473.84;22080425;78;99243;-83
2021/08/06 06:40:51;;;;;;;5.25;2.50;;;;;;;18.13;82.35;99480.77;22038514;78;99231;-82
2021/08/06 07:10:53;;;;;;;3.47;2.10;;;;;;;18.63;80.53;99489.74;22070585;78;99308;-83
2021/08/06 07:40:55;;;;;;;4.83;2.15;;;;;;;19.00;77.96;99500.52;22077923;78;99071;-86
2021/08/06 08:10:56;;;;;;;3.63;2.00;;;;;;;19.21;74.94;99503.31;22115749;78;99153;-87
2021/08/06 08:41:00;;;;;;;4.57;1.80;;;;;;;19.77;72.45;99533.17;22084286;78;99026;-89
2021/08/06 09:11:01;;;;;;;1.98;1.35;;;;;;;20.59;70.39;99534.14;20695901;78;99616;-82
2021/08/06 09:41:03;;;;;;;4.78;1.57;;;;;;;21.38;64.37;99526.13;20324287;83;99449;-87
2021/08/06 10:11:04;;;;;;;5.20;1.40;;;;;;;22.78;60.30;99542.16;20621620;83;99581;-83
2021/08/06 10:41:15;;;;;;;2.50;1.00;;;;;;;23.34;56.00;99553.17;20383472;84;99479;-83
2021/08/06 11:12:02;;;;;;;2.83;0.85;;;;;;;23.29;53.14;99553.23;20903348;83;99168;-83
2021/08/06 11:42:03;;;;;;;3.70;1.10;;;;;;;23.36;50.28;99544.41;21009917;81;99241;-86
2021/08/06 12:12:04;;;;;;;2.10;1.00;;;;;;;23.94;47.24;99518.28;20744525;81;99186;-85
2021/08/06 12:42:19;;;;;;;4.15;1.62;;;;;;;24.90;44.25;99505.08;20536404;84;99216;-83
2021/08/06 13:12:22;;;;;;;2.25;1.10;;;;;;;25.44;44.36;99502.67;21033579;81;99647;-83
2021/08/06 13:42:24;;;;;;;4.78;1.35;;;;;;;26.01;42.02;99488.62;21190980;80;99061;-81
2021/08/06 14:12:26;;;;;;;4.12;1.20;;;;;;;26.58;40.87;99475.66;21187026;82;99577;-82
2021/08/06 14:42:27;;;;;;;2.62;1.20;;;;;;;26.43;40.22;99480.73;21173997;82;99497;-84
2021/08/06 15:12:29;;;;;;;4.17;1.45;;;;;;;25.96;39.92;99479.48;21072131;81;99334;-84
2021/08/06 15:42:30;;;;;;;6.58;1.30;;;;;;;25.20;41.25;99493.09;21059963;81;99476;-82
2021/08/06 16:12:32;;;;;;;3.60;1.52;;;;;;;24.72;41.89;99509.59;20929706;82;99405;-84
2021/08/06 16:42:33;;;;;;;3.62;1.30;;;;;;;23.94;42.57;99516.88;20927748;82;99279;-81
2021/08/06 17:12:35;;;;;;;4.97;1.70;;;;;;;23.11;43.16;99528.75;21189072;80;99738;-82
2021/08/06 17:42:36;;;;;;;2.43;1.17;;;;;;;22.29;45.06;99527.22;21208845;80;99423;-83
2021/08/06 18:12:37;;;;;;;4.33;1.82;;;;;;;21.40;45.94;99520.81;21012608;82;99757;-83
2021/08/06 18:42:44;;;;;;;6.15;1.52;;;;;;;20.56;49.31;99523.27;20935089;81;99771;-83
2021/08/06 19:12:45;;;;;;;8.27;2.50;;;;;;;19.44;51.74;99529.31;20356269;83;99632;-83
2021/08/06 19:42:46;;;;;;;5.10;2.10;;;;;;;18.39;54.16;99544.95;20613761;84;99099;-83
2021/08/06 20:12:47;;;;;;;9.07;4.13;;;;;;;17.38;56.89;99542.07;20984436;80;99635;-83
2021/08/06 20:42:48;;;;;;;8.48;4.50;;;;;;;16.55;58.94;99532.17;21193155;82;99524;-82
2021/08/06 21:12:49;;;;;;;7.58;3.00;;;;;;;15.71;61.79;99533.73;21146747;81;99544;-81
2021/08/06 21:42:50;;;;;;;6.08;2.55;;;;;;;14.90;63.99;99546.39;21173252;80;99587;-82
2021/08/06 22:12:51;;;;;;;5.95;2.62;;;;;;;14.20;65.88;99545.77;21185075;80;99624;-81
2021/08/06 22:42:52;;;;;;;6.22;3.02;;;;;;;13.67;67.83;99558.27;21176080;80;99454;-81
2021/08/06 23:12:53;;;;;;;4.47;1.90;;;;;;;13.23;69.86;99569.56;21134871;80;99876;-81
2021/08/06 23:42:54;;;;;;;7.40;2.43;;;;;;;12.89;71.31;99545.91;21093543;82;99568;-81
